sensor_id;sensor_type;location;lat;lon;timestamp;pressure;altitude;pressure_sealevel;temperature
69590;BMP180;56792;50.644;17.984;2024-03-29T00:01:37;98276.20;;;8.30
69590;BMP180;56792;50.644;17.984;2024-03-29T00:04:08;98281.20;;;8.30
69590;BMP180;56792;50.644;17.984;2024-03-29T00:06:39;98285.80;;;8.30
69590;BMP180;56792;50.644;17.984;2024-03-29T00:09:10;98292.80;;;8.28
69590;BMP180;56792;50.644;17.984;2024-03-29T00:11:40;98292.80;;;8.20
69590;BMP180;56792;50.644;17.984;2024-03-29T00:14:11;98301.40;;;8.20
69590;BMP180;56792;50.644;17.984;2024-03-29T00:16:42;98313.80;;;8.14
69590;BMP180;56792;50.644;17.984;2024-03-29T00:19:13;98319.00;;;8.10
69590;BMP180;56792;50.644;17.984;2024-03-29T00:21:44;98318.40;;;8.10
69590;BMP180;56792;50.644;17.984;2024-03-29T00:24:15;98317.20;;;8.00
69590;BMP180;56792;50.644;17.984;2024-03-29T00:26:46;98323.60;;;8.00
69590;BMP180;56792;50.644;17.984;2024-03-29T00:29:17;98330.40;;;8.00
69590;BMP180;56792;50.644;17.984;2024-03-29T00:31:48;98331.00;;;8.00
69590;BMP180;56792;50.644;17.984;2024-03-29T00:34:19;98342.20;;;7.98
69590;BMP180;56792;50.644;17.984;2024-03-29T00:36:49;98349.00;;;7.90
69590;BMP180;56792;50.644;17.984;2024-03-29T00:39:22;98361.20;;;7.90
69590;BMP180;56792;50.644;17.984;2024-03-29T00:41:53;98371.60;;;7.90
69590;BMP180;56792;50.644;17.984;2024-03-29T00:44:24;98380.60;;;7.90
69590;BMP180;56792;50.644;17.984;2024-03-29T00:46:55;98389.20;;;7.88
69590;BMP180;56792;50.644;17.984;2024-03-29T00:49:26;98394.40;;;7.90
69590;BMP180;56792;50.644;17.984;2024-03-29T00:51:57;98400.60;;;7.80
69590;BMP180;56792;50.644;17.984;2024-03-29T00:54:28;98404.00;;;7.80
69590;BMP180;56792;50.644;17.984;2024-03-29T00:56:59;98419.20;;;7.80
69590;BMP180;56792;50.644;17.984;2024-03-29T00:59:30;98423.00;;;7.80
69590;BMP180;56792;50.644;17.984;2024-03-29T01:02:00;98419.20;;;7.70
69590;BMP180;56792;50.644;17.984;2024-03-29T01:04:31;98435.00;;;7.70
69590;BMP180;56792;50.644;17.984;2024-03-29T01:07:02;98441.20;;;7.60
69590;BMP180;56792;50.644;17.984;2024-03-29T01:09:33;98450.60;;;7.60
69590;BMP180;56792;50.644;17.984;2024-03-29T01:12:05;98451.00;;;7.60
69590;BMP180;56792;50.644;17.984;2024-03-29T01:14:36;98453.60;;;7.60
69590;BMP180;56792;50.644;17.984;2024-03-29T01:17:07;98457.40;;;7.60
69590;BMP180;56792;50.644;17.984;2024-03-29T01:19:38;98460.00;;;7.66
69590;BMP180;56792;50.644;17.984;2024-03-29T01:22:09;98466.80;;;7.60
69590;BMP180;56792;50.644;17.984;2024-03-29T01:24:40;98470.60;;;7.60
69590;BMP180;56792;50.644;17.984;2024-03-29T01:27:10;98469.20;;;7.60
69590;BMP180;56792;50.644;17.984;2024-03-29T01:29:41;98470.40;;;7.52
69590;BMP180;56792;50.644;17.984;2024-03-29T01:32:12;98479.20;;;7.50
69590;BMP180;56792;50.644;17.984;2024-03-29T01:34:43;98481.20;;;7.50
69590;BMP180;56792;50.644;17.984;2024-03-29T01:37:14;98484.40;;;7.50
69590;BMP180;56792;50.644;17.984;2024-03-29T01:39:46;98492.80;;;7.40
69590;BMP180;56792;50.644;17.984;2024-03-29T01:42:16;98497.80;;;7.40
69590;BMP180;56792;50.644;17.984;2024-03-29T01:44:47;98495.80;;;7.40
69590;BMP180;56792;50.644;17.984;2024-03-29T01:47:20;98503.60;;;7.40
69590;BMP180;56792;50.644;17.984;2024-03-29T01:49:51;98507.20;;;7.40
69590;BMP180;56792;50.644;17.984;2024-03-29T01:52:23;98506.20;;;7.30
69590;BMP180;56792;50.644;17.984;2024-03-29T01:54:54;98515.80;;;7.30
69590;BMP180;56792;50.644;17.984;2024-03-29T01:57:25;98518.00;;;7.30
69590;BMP180;56792;50.644;17.984;2024-03-29T01:59:57;98527.60;;;7.30
69590;BMP180;56792;50.644;17.984;2024-03-29T02:02:28;98536.20;;;7.22
69590;BMP180;56792;50.644;17.984;2024-03-29T02:05:00;98537.80;;;7.20
69590;BMP180;56792;50.644;17.984;2024-03-29T02:07:32;98538.40;;;7.20
69590;BMP180;56792;50.644;17.984;2024-03-29T02:10:04;98540.20;;;7.20
69590;BMP180;56792;50.644;17.984;2024-03-29T02:12:37;98538.40;;;7.20
69590;BMP180;56792;50.644;17.984;2024-03-29T02:15:13;98548.00;;;7.10
69590;BMP180;56792;50.644;17.984;2024-03-29T02:17:45;98547.20;;;7.10
69590;BMP180;56792;50.644;17.984;2024-03-29T02:20:16;98547.00;;;7.10
69590;BMP180;56792;50.644;17.984;2024-03-29T02:22:53;98552.60;;;7.00
69590;BMP180;56792;50.644;17.984;2024-03-29T02:25:24;98552.00;;;7.00
69590;BMP180;56792;50.644;17.984;2024-03-29T02:27:56;98552.00;;;6.92
69590;BMP180;56792;50.644;17.984;2024-03-29T02:30:30;98556.40;;;6.90
69590;BMP180;56792;50.644;17.984;2024-03-29T02:33:02;98553.40;;;6.90
69590;BMP180;56792;50.644;17.984;2024-03-29T02:35:33;98558.00;;;6.86
69590;BMP180;56792;50.644;17.984;2024-03-29T02:38:04;98559.00;;;6.80
69590;BMP180;56792;50.644;17.984;2024-03-29T02:40:35;98562.80;;;6.80
69590;BMP180;56792;50.644;17.984;2024-03-29T02:43:07;98563.80;;;6.70
69590;BMP180;56792;50.644;17.984;2024-03-29T02:45:39;98561.80;;;6.70
69590;BMP180;56792;50.644;17.984;2024-03-29T02:48:10;98559.80;;;6.60
69590;BMP180;56792;50.644;17.984;2024-03-29T02:50:41;98560.00;;;6.58
69590;BMP180;56792;50.644;17.984;2024-03-29T02:53:12;98557.20;;;6.50
69590;BMP180;56792;50.644;17.984;2024-03-29T02:55:45;98552.60;;;6.46
69590;BMP180;56792;50.644;17.984;2024-03-29T02:58:16;98549.40;;;6.40
69590;BMP180;56792;50.644;17.984;2024-03-29T03:00:46;98547.40;;;6.30
69590;BMP180;56792;50.644;17.984;2024-03-29T03:03:18;98546.40;;;6.30
69590;BMP180;56792;50.644;17.984;2024-03-29T03:05:49;98541.20;;;6.28
69590;BMP180;56792;50.644;17.984;2024-03-29T03:08:21;98536.40;;;6.20
69590;BMP180;56792;50.644;17.984;2024-03-29T03:11:10;98531.80;;;6.10
69590;BMP180;56792;50.644;17.984;2024-03-29T03:13:41;98537.40;;;6.00
69590;BMP180;56792;50.644;17.984;2024-03-29T03:16:12;98542.40;;;6.00
69590;BMP180;56792;50.644;17.984;2024-03-29T03:18:43;98545.60;;;6.00
69590;BMP180;56792;50.644;17.984;2024-03-29T03:21:14;98544.60;;;6.00
69590;BMP180;56792;50.644;17.984;2024-03-29T03:23:45;98546.80;;;6.00
69590;BMP180;56792;50.644;17.984;2024-03-29T03:26:16;98548.00;;;6.00
69590;BMP180;56792;50.644;17.984;2024-03-29T03:28:47;98555.20;;;5.90
69590;BMP180;56792;50.644;17.984;2024-03-29T03:31:18;98560.40;;;5.90
69590;BMP180;56792;50.644;17.984;2024-03-29T03:33:49;98562.20;;;5.90
69590;BMP180;56792;50.644;17.984;2024-03-29T03:36:20;98562.40;;;5.90
69590;BMP180;56792;50.644;17.984;2024-03-29T03:38:51;98562.60;;;5.90
69590;BMP180;56792;50.644;17.984;2024-03-29T03:41:21;98566.60;;;5.90
69590;BMP180;56792;50.644;17.984;2024-03-29T03:43:52;98569.40;;;5.90
69590;BMP180;56792;50.644;17.984;2024-03-29T03:46:23;98567.20;;;5.90
69590;BMP180;56792;50.644;17.984;2024-03-29T03:48:54;98563.20;;;5.90
69590;BMP180;56792;50.644;17.984;2024-03-29T03:51:25;98560.60;;;5.86
69590;BMP180;56792;50.644;17.984;2024-03-29T03:53:56;98564.20;;;5.80
69590;BMP180;56792;50.644;17.984;2024-03-29T03:56:27;98561.80;;;5.80
69590;BMP180;56792;50.644;17.984;2024-03-29T03:58:58;98563.40;;;5.70
69590;BMP180;56792;50.644;17.984;2024-03-29T04:01:29;98565.60;;;5.70
69590;BMP180;56792;50.644;17.984;2024-03-29T04:04:00;98559.40;;;5.68
69590;BMP180;56792;50.644;17.984;2024-03-29T04:06:31;98560.40;;;5.60
69590;BMP180;56792;50.644;17.984;2024-03-29T04:09:02;98565.00;;;5.60
69590;BMP180;56792;50.644;17.984;2024-03-29T04:11:33;98568.60;;;5.60
69590;BMP180;56792;50.644;17.984;2024-03-29T04:14:04;98574.40;;;5.60
69590;BMP180;56792;50.644;17.984;2024-03-29T04:16:35;98576.80;;;5.54
69590;BMP180;56792;50.644;17.984;2024-03-29T04:19:06;98582.40;;;5.50
69590;BMP180;56792;50.644;17.984;2024-03-29T04:21:37;98594.00;;;5.50
69590;BMP180;56792;50.644;17.984;2024-03-29T04:24:08;98610.40;;;5.50
69590;BMP180;56792;50.644;17.984;2024-03-29T04:26:40;98620.00;;;5.42
69590;BMP180;56792;50.644;17.984;2024-03-29T04:29:14;98629.60;;;5.40
69590;BMP180;56792;50.644;17.984;2024-03-29T04:31:47;98628.00;;;5.40
69590;BMP180;56792;50.644;17.984;2024-03-29T04:34:18;98624.20;;;5.30
69590;BMP180;56792;50.644;17.984;2024-03-29T04:36:49;98637.60;;;5.28
69590;BMP180;56792;50.644;17.984;2024-03-29T04:39:20;98632.40;;;5.20
69590;BMP180;56792;50.644;17.984;2024-03-29T04:41:51;98640.40;;;5.20
69590;BMP180;56792;50.644;17.984;2024-03-29T04:44:29;98639.20;;;5.10
69590;BMP180;56792;50.644;17.984;2024-03-29T04:47:00;98638.40;;;5.10
69590;BMP180;56792;50.644;17.984;2024-03-29T04:49:31;98638.20;;;5.00
69590;BMP180;56792;50.644;17.984;2024-03-29T04:52:04;98633.40;;;5.00
69590;BMP180;56792;50.644;17.984;2024-03-29T04:54:36;98633.20;;;5.00
69590;BMP180;56792;50.644;17.984;2024-03-29T04:57:07;98641.60;;;5.00
69590;BMP180;56792;50.644;17.984;2024-03-29T04:59:38;98645.40;;;4.96
69590;BMP180;56792;50.644;17.984;2024-03-29T05:02:09;98645.20;;;5.00
69590;BMP180;56792;50.644;17.984;2024-03-29T05:04:40;98647.00;;;5.00
69590;BMP180;56792;50.644;17.984;2024-03-29T05:07:12;98652.00;;;5.02
69590;BMP180;56792;50.644;17.984;2024-03-29T05:09:44;98652.80;;;5.10
69590;BMP180;56792;50.644;17.984;2024-03-29T05:12:15;98655.00;;;5.10
69590;BMP180;56792;50.644;17.984;2024-03-29T05:14:46;98654.40;;;5.10
69590;BMP180;56792;50.644;17.984;2024-03-29T05:17:19;98664.00;;;5.20
69590;BMP180;56792;50.644;17.984;2024-03-29T05:19:55;98663.40;;;5.20
69590;BMP180;56792;50.644;17.984;2024-03-29T05:22:25;98664.60;;;5.20
69590;BMP180;56792;50.644;17.984;2024-03-29T05:24:57;98670.20;;;5.30
69590;BMP180;56792;50.644;17.984;2024-03-29T05:27:28;98684.40;;;5.30
69590;BMP180;56792;50.644;17.984;2024-03-29T05:29:59;98681.60;;;5.40
69590;BMP180;56792;50.644;17.984;2024-03-29T05:32:30;98682.00;;;5.40
69590;BMP180;56792;50.644;17.984;2024-03-29T05:35:01;98691.40;;;5.40
69590;BMP180;56792;50.644;17.984;2024-03-29T05:37:32;98691.80;;;5.40
69590;BMP180;56792;50.644;17.984;2024-03-29T05:40:03;98683.00;;;5.50
69590;BMP180;56792;50.644;17.984;2024-03-29T05:42:36;98686.40;;;5.50
69590;BMP180;56792;50.644;17.984;2024-03-29T05:45:23;98689.00;;;5.52
69590;BMP180;56792;50.644;17.984;2024-03-29T05:47:57;98706.00;;;5.60
69590;BMP180;56792;50.644;17.984;2024-03-29T05:50:29;98703.60;;;5.70
69590;BMP180;56792;50.644;17.984;2024-03-29T05:53:00;98709.80;;;5.70
69590;BMP180;56792;50.644;17.984;2024-03-29T05:55:31;98703.40;;;5.80
69590;BMP180;56792;50.644;17.984;2024-03-29T05:58:01;98704.20;;;5.82
69590;BMP180;56792;50.644;17.984;2024-03-29T06:00:33;98707.20;;;5.90
69590;BMP180;56792;50.644;17.984;2024-03-29T06:03:05;98697.20;;;6.00
69590;BMP180;56792;50.644;17.984;2024-03-29T06:05:36;98690.40;;;6.10
69590;BMP180;56792;50.644;17.984;2024-03-29T06:08:08;98680.80;;;6.10
69590;BMP180;56792;50.644;17.984;2024-03-29T06:10:39;98676.80;;;6.22
69590;BMP180;56792;50.644;17.984;2024-03-29T06:13:10;98681.40;;;6.32
69590;BMP180;56792;50.644;17.984;2024-03-29T06:15:57;98679.60;;;6.50
69590;BMP180;56792;50.644;17.984;2024-03-29T06:18:45;98678.40;;;6.60
69590;BMP180;56792;50.644;17.984;2024-03-29T06:21:16;98682.20;;;6.70
69590;BMP180;56792;50.644;17.984;2024-03-29T06:23:47;98680.80;;;6.80
69590;BMP180;56792;50.644;17.984;2024-03-29T06:26:18;98683.00;;;6.90
69590;BMP180;56792;50.644;17.984;2024-03-29T06:28:50;98676.80;;;7.00
69590;BMP180;56792;50.644;17.984;2024-03-29T06:31:21;98678.20;;;7.20
69590;BMP180;56792;50.644;17.984;2024-03-29T06:33:52;98684.40;;;7.30
69590;BMP180;56792;50.644;17.984;2024-03-29T06:36:23;98692.20;;;7.40
69590;BMP180;56792;50.644;17.984;2024-03-29T06:38:55;98703.00;;;7.50
69590;BMP180;56792;50.644;17.984;2024-03-29T06:41:26;98704.20;;;7.60
69590;BMP180;56792;50.644;17.984;2024-03-29T06:43:57;98712.40;;;7.70
69590;BMP180;56792;50.644;17.984;2024-03-29T06:46:28;98709.00;;;7.90
69590;BMP180;56792;50.644;17.984;2024-03-29T06:48:59;98706.20;;;8.00
69590;BMP180;56792;50.644;17.984;2024-03-29T06:51:30;98706.80;;;8.10
69590;BMP180;56792;50.644;17.984;2024-03-29T06:54:01;98697.00;;;8.20
69590;BMP180;56792;50.644;17.984;2024-03-29T06:56:33;98695.20;;;8.30
69590;BMP180;56792;50.644;17.984;2024-03-29T06:59:04;98691.00;;;8.40
69590;BMP180;56792;50.644;17.984;2024-03-29T07:01:35;98687.80;;;8.46
69590;BMP180;56792;50.644;17.984;2024-03-29T07:04:06;98691.60;;;8.50
69590;BMP180;56792;50.644;17.984;2024-03-29T07:06:37;98700.40;;;8.60
69590;BMP180;56792;50.644;17.984;2024-03-29T07:09:09;98706.60;;;8.72
69590;BMP180;56792;50.644;17.984;2024-03-29T07:11:42;98711.80;;;8.90
69590;BMP180;56792;50.644;17.984;2024-03-29T07:14:13;98720.00;;;9.00
69590;BMP180;56792;50.644;17.984;2024-03-29T07:16:44;98720.20;;;9.10
69590;BMP180;56792;50.644;17.984;2024-03-29T07:19:16;98719.40;;;9.30
69590;BMP180;56792;50.644;17.984;2024-03-29T07:21:48;98727.60;;;9.30
69590;BMP180;56792;50.644;17.984;2024-03-29T07:24:22;98724.80;;;9.30
69590;BMP180;56792;50.644;17.984;2024-03-29T07:26:52;98736.40;;;9.30
69590;BMP180;56792;50.644;17.984;2024-03-29T07:29:24;98733.20;;;9.34
69590;BMP180;56792;50.644;17.984;2024-03-29T07:31:54;98739.60;;;9.40
69590;BMP180;56792;50.644;17.984;2024-03-29T07:34:25;98748.60;;;9.50
69590;BMP180;56792;50.644;17.984;2024-03-29T07:36:56;98751.20;;;9.60
69590;BMP180;56792;50.644;17.984;2024-03-29T07:39:27;98754.40;;;9.60
69590;BMP180;56792;50.644;17.984;2024-03-29T07:41:58;98751.60;;;9.68
69590;BMP180;56792;50.644;17.984;2024-03-29T07:44:29;98754.80;;;9.72
69590;BMP180;56792;50.644;17.984;2024-03-29T07:47:00;98747.40;;;9.80
69590;BMP180;56792;50.644;17.984;2024-03-29T07:49:31;98749.40;;;9.90
69590;BMP180;56792;50.644;17.984;2024-03-29T07:52:02;98748.00;;;10.00
69590;BMP180;56792;50.644;17.984;2024-03-29T07:54:35;98743.40;;;10.04
69590;BMP180;56792;50.644;17.984;2024-03-29T07:57:06;98737.20;;;10.10
69590;BMP180;56792;50.644;17.984;2024-03-29T07:59:38;98741.80;;;10.24
69590;BMP180;56792;50.644;17.984;2024-03-29T08:02:09;98742.20;;;10.40
69590;BMP180;56792;50.644;17.984;2024-03-29T08:04:40;98743.80;;;10.50
69590;BMP180;56792;50.644;17.984;2024-03-29T08:07:12;98748.20;;;10.50
69590;BMP180;56792;50.644;17.984;2024-03-29T08:09:43;98754.20;;;10.60
69590;BMP180;56792;50.644;17.984;2024-03-29T08:12:14;98744.20;;;10.70
69590;BMP180;56792;50.644;17.984;2024-03-29T08:14:45;98749.20;;;10.80
69590;BMP180;56792;50.644;17.984;2024-03-29T08:17:16;98750.00;;;10.90
69590;BMP180;56792;50.644;17.984;2024-03-29T08:19:47;98747.00;;;10.90
69590;BMP180;56792;50.644;17.984;2024-03-29T08:22:18;98754.20;;;11.00
69590;BMP180;56792;50.644;17.984;2024-03-29T08:24:49;98757.60;;;11.10
69590;BMP180;56792;50.644;17.984;2024-03-29T08:27:20;98751.20;;;11.20
69590;BMP180;56792;50.644;17.984;2024-03-29T08:29:51;98751.20;;;11.30
69590;BMP180;56792;50.644;17.984;2024-03-29T08:32:22;98750.40;;;11.40
69590;BMP180;56792;50.644;17.984;2024-03-29T08:34:52;98748.60;;;11.52
69590;BMP180;56792;50.644;17.984;2024-03-29T08:37:23;98754.80;;;11.70
69590;BMP180;56792;50.644;17.984;2024-03-29T08:39:54;98756.20;;;11.86
69590;BMP180;56792;50.644;17.984;2024-03-29T08:42:25;98762.60;;;12.00
69590;BMP180;56792;50.644;17.984;2024-03-29T08:44:56;98768.60;;;12.10
69590;BMP180;56792;50.644;17.984;2024-03-29T08:47:29;98765.40;;;12.28
69590;BMP180;56792;50.644;17.984;2024-03-29T08:50:01;98770.20;;;12.40
69590;BMP180;56792;50.644;17.984;2024-03-29T08:52:33;98766.80;;;12.54
69590;BMP180;56792;50.644;17.984;2024-03-29T08:55:05;98764.20;;;12.68
69590;BMP180;56792;50.644;17.984;2024-03-29T08:57:36;98769.00;;;12.70
69590;BMP180;56792;50.644;17.984;2024-03-29T09:00:11;98770.20;;;12.80
69590;BMP180;56792;50.644;17.984;2024-03-29T09:02:42;98762.80;;;12.90
69590;BMP180;56792;50.644;17.984;2024-03-29T09:05:13;98764.00;;;12.90
69590;BMP180;56792;50.644;17.984;2024-03-29T09:07:44;98755.00;;;13.00
69590;BMP180;56792;50.644;17.984;2024-03-29T09:10:16;98759.20;;;13.00
69590;BMP180;56792;50.644;17.984;2024-03-29T09:12:47;98751.80;;;13.10
69590;BMP180;56792;50.644;17.984;2024-03-29T09:15:18;98739.20;;;13.30
69590;BMP180;56792;50.644;17.984;2024-03-29T09:17:49;98741.00;;;13.56
69590;BMP180;56792;50.644;17.984;2024-03-29T09:20:24;98742.40;;;13.68
69590;BMP180;56792;50.644;17.984;2024-03-29T09:22:55;98745.20;;;13.60
69590;BMP180;56792;50.644;17.984;2024-03-29T09:25:26;98756.00;;;13.66
69590;BMP180;56792;50.644;17.984;2024-03-29T09:27:56;98763.20;;;13.80
69590;BMP180;56792;50.644;17.984;2024-03-29T09:30:30;98766.20;;;14.00
69590;BMP180;56792;50.644;17.984;2024-03-29T09:33:01;98757.80;;;14.22
69590;BMP180;56792;50.644;17.984;2024-03-29T09:35:36;98757.20;;;14.42
69590;BMP180;56792;50.644;17.984;2024-03-29T09:38:07;98756.00;;;14.60
69590;BMP180;56792;50.644;17.984;2024-03-29T09:40:39;98748.40;;;14.78
69590;BMP180;56792;50.644;17.984;2024-03-29T09:43:13;98749.20;;;15.00
69590;BMP180;56792;50.644;17.984;2024-03-29T09:45:46;98746.20;;;15.10
69590;BMP180;56792;50.644;17.984;2024-03-29T09:48:17;98740.00;;;15.00
69590;BMP180;56792;50.644;17.984;2024-03-29T09:50:49;98738.80;;;15.10
69590;BMP180;56792;50.644;17.984;2024-03-29T09:53:22;98741.40;;;15.08
69590;BMP180;56792;50.644;17.984;2024-03-29T09:55:54;98742.00;;;14.90
69590;BMP180;56792;50.644;17.984;2024-03-29T09:58:25;98738.20;;;14.80
69590;BMP180;56792;50.644;17.984;2024-03-29T10:00:58;98740.00;;;14.94
69590;BMP180;56792;50.644;17.984;2024-03-29T10:03:31;98733.60;;;15.10
69590;BMP180;56792;50.644;17.984;2024-03-29T10:06:03;98734.80;;;15.20
69590;BMP180;56792;50.644;17.984;2024-03-29T10:08:35;98739.40;;;15.28
69590;BMP180;56792;50.644;17.984;2024-03-29T10:11:07;98738.60;;;15.40
69590;BMP180;56792;50.644;17.984;2024-03-29T10:13:38;98738.00;;;15.50
69590;BMP180;56792;50.644;17.984;2024-03-29T10:16:10;98744.00;;;15.50
69590;BMP180;56792;50.644;17.984;2024-03-29T10:18:43;98735.20;;;15.60
69590;BMP180;56792;50.644;17.984;2024-03-29T10:21:14;98725.80;;;15.70
69590;BMP180;56792;50.644;17.984;2024-03-29T10:23:46;98726.40;;;15.70
69590;BMP180;56792;50.644;17.984;2024-03-29T10:26:18;98722.20;;;15.80
69590;BMP180;56792;50.644;17.984;2024-03-29T10:28:49;98719.60;;;16.00
69590;BMP180;56792;50.644;17.984;2024-03-29T10:31:21;98710.80;;;16.20
69590;BMP180;56792;50.644;17.984;2024-03-29T10:33:52;98711.00;;;16.30
69590;BMP180;56792;50.644;17.984;2024-03-29T10:36:26;98708.00;;;16.30
69590;BMP180;56792;50.644;17.984;2024-03-29T10:38:57;98702.80;;;16.40
69590;BMP180;56792;50.644;17.984;2024-03-29T10:41:29;98694.00;;;16.50
69590;BMP180;56792;50.644;17.984;2024-03-29T10:44:01;98696.20;;;16.50
69590;BMP180;56792;50.644;17.984;2024-03-29T10:46:35;98693.40;;;16.60
69590;BMP180;56792;50.644;17.984;2024-03-29T10:49:09;98694.40;;;16.80
69590;BMP180;56792;50.644;17.984;2024-03-29T10:51:42;98688.40;;;16.68
69590;BMP180;56792;50.644;17.984;2024-03-29T10:54:14;98687.20;;;16.70
69590;BMP180;56792;50.644;17.984;2024-03-29T10:56:50;98687.00;;;16.86
69590;BMP180;56792;50.644;17.984;2024-03-29T10:59:29;98693.80;;;16.92
69590;BMP180;56792;50.644;17.984;2024-03-29T11:02:07;98688.20;;;16.90
69590;BMP180;56792;50.644;17.984;2024-03-29T11:04:44;98685.60;;;16.90
69590;BMP180;56792;50.644;17.984;2024-03-29T11:07:21;98681.80;;;17.00
69590;BMP180;56792;50.644;17.984;2024-03-29T11:09:59;98680.20;;;17.04
69590;BMP180;56792;50.644;17.984;2024-03-29T11:12:45;98673.00;;;17.10
69590;BMP180;56792;50.644;17.984;2024-03-29T11:15:28;98673.40;;;17.10
69590;BMP180;56792;50.644;17.984;2024-03-29T11:17:59;98673.60;;;17.10
69590;BMP180;56792;50.644;17.984;2024-03-29T11:20:32;98676.00;;;17.10
69590;BMP180;56792;50.644;17.984;2024-03-29T11:23:11;98665.80;;;17.20
69590;BMP180;56792;50.644;17.984;2024-03-29T11:25:44;98650.20;;;17.34
69590;BMP180;56792;50.644;17.984;2024-03-29T11:28:22;98641.20;;;17.50
69590;BMP180;56792;50.644;17.984;2024-03-29T11:31:00;98625.00;;;17.50
69590;BMP180;56792;50.644;17.984;2024-03-29T11:33:46;98623.80;;;17.60
69590;BMP180;56792;50.644;17.984;2024-03-29T11:36:19;98615.40;;;17.68
69590;BMP180;56792;50.644;17.984;2024-03-29T11:38:52;98610.80;;;17.70
69590;BMP180;56792;50.644;17.984;2024-03-29T11:41:26;98612.00;;;17.90
69590;BMP180;56792;50.644;17.984;2024-03-29T11:43:59;98612.20;;;17.96
69590;BMP180;56792;50.644;17.984;2024-03-29T11:46:31;98610.60;;;18.10
69590;BMP180;56792;50.644;17.984;2024-03-29T11:49:05;98598.60;;;18.10
69590;BMP180;56792;50.644;17.984;2024-03-29T11:51:36;98603.00;;;18.28
69590;BMP180;56792;50.644;17.984;2024-03-29T11:54:08;98604.40;;;18.30
69590;BMP180;56792;50.644;17.984;2024-03-29T11:56:39;98606.40;;;18.30
69590;BMP180;56792;50.644;17.984;2024-03-29T11:59:10;98601.40;;;18.40
69590;BMP180;56792;50.644;17.984;2024-03-29T12:01:42;98605.20;;;18.34
69590;BMP180;56792;50.644;17.984;2024-03-29T12:04:22;98600.00;;;18.20
69590;BMP180;56792;50.644;17.984;2024-03-29T12:06:53;98596.60;;;18.34
69590;BMP180;56792;50.644;17.984;2024-03-29T12:09:24;98596.40;;;18.50
69590;BMP180;56792;50.644;17.984;2024-03-29T12:11:55;98599.60;;;18.30
69590;BMP180;56792;50.644;17.984;2024-03-29T12:14:29;98596.20;;;18.00
69590;BMP180;56792;50.644;17.984;2024-03-29T12:17:10;98607.40;;;17.82
69590;BMP180;56792;50.644;17.984;2024-03-29T12:19:41;98606.60;;;17.58
69590;BMP180;56792;50.644;17.984;2024-03-29T12:22:13;98611.80;;;17.40
69590;BMP180;56792;50.644;17.984;2024-03-29T12:24:44;98609.80;;;17.60
69590;BMP180;56792;50.644;17.984;2024-03-29T12:27:16;98612.20;;;17.92
69590;BMP180;56792;50.644;17.984;2024-03-29T12:29:48;98597.80;;;18.14
69590;BMP180;56792;50.644;17.984;2024-03-29T12:32:21;98599.80;;;18.28
69590;BMP180;56792;50.644;17.984;2024-03-29T12:34:53;98595.60;;;18.30
69590;BMP180;56792;50.644;17.984;2024-03-29T12:37:25;98592.20;;;18.30
69590;BMP180;56792;50.644;17.984;2024-03-29T12:40:00;98596.00;;;18.30
69590;BMP180;56792;50.644;17.984;2024-03-29T12:42:34;98594.00;;;18.36
69590;BMP180;56792;50.644;17.984;2024-03-29T12:45:07;98598.40;;;18.30
69590;BMP180;56792;50.644;17.984;2024-03-29T12:47:38;98596.80;;;18.10
69590;BMP180;56792;50.644;17.984;2024-03-29T12:50:12;98590.80;;;18.02
69590;BMP180;56792;50.644;17.984;2024-03-29T12:52:44;98594.00;;;18.10
69590;BMP180;56792;50.644;17.984;2024-03-29T12:55:15;98590.80;;;18.20
69590;BMP180;56792;50.644;17.984;2024-03-29T12:57:48;98585.20;;;18.40
69590;BMP180;56792;50.644;17.984;2024-03-29T13:00:19;98586.60;;;18.50
69590;BMP180;56792;50.644;17.984;2024-03-29T13:02:51;98584.60;;;18.60
69590;BMP180;56792;50.644;17.984;2024-03-29T13:05:22;98581.00;;;18.70
69590;BMP180;56792;50.644;17.984;2024-03-29T13:07:54;98585.00;;;18.60
69590;BMP180;56792;50.644;17.984;2024-03-29T13:10:26;98586.60;;;18.60
69590;BMP180;56792;50.644;17.984;2024-03-29T13:12:57;98584.60;;;18.64
69590;BMP180;56792;50.644;17.984;2024-03-29T13:15:32;98595.40;;;18.60
69590;BMP180;56792;50.644;17.984;2024-03-29T13:18:04;98599.80;;;18.54
69590;BMP180;56792;50.644;17.984;2024-03-29T13:20:36;98595.40;;;18.30
69590;BMP180;56792;50.644;17.984;2024-03-29T13:23:10;98600.40;;;18.30
69590;BMP180;56792;50.644;17.984;2024-03-29T13:25:41;98595.40;;;18.40
69590;BMP180;56792;50.644;17.984;2024-03-29T13:28:12;98595.00;;;18.30
69590;BMP180;56792;50.644;17.984;2024-03-29T13:30:43;98594.40;;;18.40
69590;BMP180;56792;50.644;17.984;2024-03-29T13:33:15;98587.80;;;18.50
69590;BMP180;56792;50.644;17.984;2024-03-29T13:35:46;98590.20;;;18.40
69590;BMP180;56792;50.644;17.984;2024-03-29T13:38:17;98599.60;;;18.30
69590;BMP180;56792;50.644;17.984;2024-03-29T13:40:52;98594.20;;;18.30
69590;BMP180;56792;50.644;17.984;2024-03-29T13:43:23;98588.80;;;18.20
69590;BMP180;56792;50.644;17.984;2024-03-29T13:45:54;98586.60;;;18.22
69590;BMP180;56792;50.644;17.984;2024-03-29T13:48:25;98585.40;;;18.30
69590;BMP180;56792;50.644;17.984;2024-03-29T13:50:57;98587.80;;;18.30
69590;BMP180;56792;50.644;17.984;2024-03-29T13:53:28;98589.80;;;18.20
69590;BMP180;56792;50.644;17.984;2024-03-29T13:56:05;98592.60;;;18.24
69590;BMP180;56792;50.644;17.984;2024-03-29T13:58:36;98599.00;;;18.20
69590;BMP180;56792;50.644;17.984;2024-03-29T14:01:07;98596.60;;;18.20
69590;BMP180;56792;50.644;17.984;2024-03-29T14:03:38;98600.00;;;18.20
69590;BMP180;56792;50.644;17.984;2024-03-29T14:06:09;98596.40;;;18.10
69590;BMP180;56792;50.644;17.984;2024-03-29T14:08:41;98588.60;;;18.02
69590;BMP180;56792;50.644;17.984;2024-03-29T14:11:12;98581.80;;;18.00
69590;BMP180;56792;50.644;17.984;2024-03-29T14:13:44;98583.60;;;18.04
69590;BMP180;56792;50.644;17.984;2024-03-29T14:16:17;98590.60;;;18.10
69590;BMP180;56792;50.644;17.984;2024-03-29T14:18:48;98580.20;;;18.10
69590;BMP180;56792;50.644;17.984;2024-03-29T14:21:19;98576.80;;;18.00
69590;BMP180;56792;50.644;17.984;2024-03-29T14:23:50;98567.00;;;18.00
69590;BMP180;56792;50.644;17.984;2024-03-29T14:26:21;98564.20;;;17.92
69590;BMP180;56792;50.644;17.984;2024-03-29T14:28:52;98566.80;;;17.90
69590;BMP180;56792;50.644;17.984;2024-03-29T14:31:23;98570.20;;;17.90